sensor_id;sensor_type;location;lat;lon;timestamp;P1;durP1;ratioP1;P2;durP2;ratioP2
62994;SDS011;49086;52.300;4.850;2022-12-18T00:08:13;50.60;;;18.02;;
62994;SDS011;49086;52.300;4.850;2022-12-18T00:10:43;60.50;;;19.98;;
62994;SDS011;49086;52.300;4.850;2022-12-18T00:13:20;57.72;;;18.23;;
62994;SDS011;49086;52.300;4.850;2022-12-18T00:16:02;41.97;;;17.08;;
62994;SDS011;49086;52.300;4.850;2022-12-18T00:19:00;57.45;;;19.50;;
62994;SDS011;49086;52.300;4.850;2022-12-18T00:30:26;48.65;;;16.00;;
62994;SDS011;49086;52.300;4.850;2022-12-18T00:32:52;47.45;;;16.40;;
62994;SDS011;49086;52.300;4.850;2022-12-18T00:35:17;52.42;;;19.30;;
62994;SDS011;49086;52.300;4.850;2022-12-18T00:37:43;57.28;;;19.80;;
62994;SDS011;49086;52.300;4.850;2022-12-18T00:40:08;44.57;;;16.30;;
62994;SDS011;49086;52.300;4.850;2022-12-18T00:42:33;55.22;;;17.67;;
62994;SDS011;49086;52.300;4.850;2022-12-18T00:47:43;47.42;;;15.32;;
62994;SDS011;49086;52.300;4.850;2022-12-18T00:50:10;60.83;;;16.60;;
62994;SDS011;49086;52.300;4.850;2022-12-18T00:52:35;44.85;;;14.80;;
62994;SDS011;49086;52.300;4.850;2022-12-18T00:55:01;56.20;;;17.42;;
62994;SDS011;49086;52.300;4.850;2022-12-18T00:57:29;38.35;;;14.55;;
62994;SDS011;49086;52.300;4.850;2022-12-18T00:59:55;53.30;;;17.50;;
62994;SDS011;49086;52.300;4.850;2022-12-18T01:02:21;57.53;;;17.83;;
62994;SDS011;49086;52.300;4.850;2022-12-18T01:04:46;43.55;;;17.23;;
62994;SDS011;49086;52.300;4.850;2022-12-18T01:07:12;47.97;;;18.33;;
62994;SDS011;49086;52.300;4.850;2022-12-18T01:09:38;48.10;;;17.53;;
62994;SDS011;49086;52.300;4.850;2022-12-18T01:12:03;49.25;;;18.55;;
62994;SDS011;49086;52.300;4.850;2022-12-18T01:14:29;49.05;;;17.48;;
62994;SDS011;49086;52.300;4.850;2022-12-18T01:16:54;52.20;;;18.98;;
62994;SDS011;49086;52.300;4.850;2022-12-18T01:19:19;39.83;;;14.73;;
62994;SDS011;49086;52.300;4.850;2022-12-18T01:21:44;39.28;;;15.55;;
62994;SDS011;49086;52.300;4.850;2022-12-18T01:24:15;48.40;;;17.35;;
62994;SDS011;49086;52.300;4.850;2022-12-18T01:26:43;44.10;;;16.23;;
62994;SDS011;49086;52.300;4.850;2022-12-18T01:29:08;44.00;;;16.73;;
62994;SDS011;49086;52.300;4.850;2022-12-18T01:31:35;38.97;;;17.25;;
62994;SDS011;49086;52.300;4.850;2022-12-18T01:34:01;34.78;;;14.45;;
62994;SDS011;49086;52.300;4.850;2022-12-18T01:36:27;42.08;;;16.42;;
62994;SDS011;49086;52.300;4.850;2022-12-18T01:38:59;36.17;;;14.90;;
62994;SDS011;49086;52.300;4.850;2022-12-18T01:41:26;38.72;;;15.75;;
62994;SDS011;49086;52.300;4.850;2022-12-18T01:46:55;50.03;;;17.70;;
62994;SDS011;49086;52.300;4.850;2022-12-18T01:49:21;43.03;;;17.47;;
62994;SDS011;49086;52.300;4.850;2022-12-18T01:51:46;34.60;;;15.52;;
62994;SDS011;49086;52.300;4.850;2022-12-18T01:54:11;37.77;;;15.33;;
62994;SDS011;49086;52.300;4.850;2022-12-18T01:56:36;45.13;;;15.43;;
62994;SDS011;49086;52.300;4.850;2022-12-18T01:59:02;44.30;;;16.52;;
62994;SDS011;49086;52.300;4.850;2022-12-18T02:01:29;45.60;;;15.65;;
62994;SDS011;49086;52.300;4.850;2022-12-18T02:03:55;40.60;;;16.15;;
62994;SDS011;49086;52.300;4.850;2022-12-18T02:06:37;40.65;;;16.65;;
62994;SDS011;49086;52.300;4.850;2022-12-18T02:09:10;41.55;;;16.67;;
62994;SDS011;49086;52.300;4.850;2022-12-18T02:14:28;40.70;;;15.57;;
62994;SDS011;49086;52.300;4.850;2022-12-18T02:17:04;27.58;;;13.75;;
62994;SDS011;49086;52.300;4.850;2022-12-18T02:27:42;54.35;;;17.15;;
62994;SDS011;49086;52.300;4.850;2022-12-18T02:30:09;40.60;;;17.33;;
62994;SDS011;49086;52.300;4.850;2022-12-18T02:32:38;34.47;;;16.30;;
62994;SDS011;49086;52.300;4.850;2022-12-18T02:35:14;35.97;;;16.58;;
62994;SDS011;49086;52.300;4.850;2022-12-18T02:37:43;39.15;;;15.07;;
62994;SDS011;49086;52.300;4.850;2022-12-18T02:40:14;36.92;;;14.63;;
62994;SDS011;49086;52.300;4.850;2022-12-18T02:43:02;34.33;;;13.25;;
62994;SDS011;49086;52.300;4.850;2022-12-18T02:45:28;39.05;;;15.75;;
62994;SDS011;49086;52.300;4.850;2022-12-18T02:47:57;44.25;;;14.07;;
62994;SDS011;49086;52.300;4.850;2022-12-18T02:50:43;36.03;;;15.77;;
62994;SDS011;49086;52.300;4.850;2022-12-18T03:00:53;35.00;;;14.45;;
62994;SDS011;49086;52.300;4.850;2022-12-18T03:03:30;32.92;;;13.60;;
62994;SDS011;49086;52.300;4.850;2022-12-18T03:06:10;29.48;;;13.13;;
62994;SDS011;49086;52.300;4.850;2022-12-18T03:08:42;42.28;;;14.50;;
62994;SDS011;49086;52.300;4.850;2022-12-18T03:11:13;36.42;;;15.85;;
62994;SDS011;49086;52.300;4.850;2022-12-18T03:13:39;34.67;;;14.80;;
62994;SDS011;49086;52.300;4.850;2022-12-18T03:16:09;38.58;;;15.13;;
62994;SDS011;49086;52.300;4.850;2022-12-18T03:19:07;36.78;;;14.65;;
62994;SDS011;49086;52.300;4.850;2022-12-18T03:21:40;36.10;;;16.77;;
62994;SDS011;49086;52.300;4.850;2022-12-18T03:24:07;30.05;;;14.50;;
62994;SDS011;49086;52.300;4.850;2022-12-18T03:26:34;36.05;;;15.25;;
62994;SDS011;49086;52.300;4.850;2022-12-18T03:29:02;41.00;;;15.15;;
62994;SDS011;49086;52.300;4.850;2022-12-18T03:31:30;36.15;;;14.82;;
62994;SDS011;49086;52.300;4.850;2022-12-18T03:34:01;40.55;;;16.02;;
62994;SDS011;49086;52.300;4.850;2022-12-18T03:36:30;35.63;;;15.57;;
62994;SDS011;49086;52.300;4.850;2022-12-18T03:39:00;37.88;;;15.15;;
62994;SDS011;49086;52.300;4.850;2022-12-18T03:41:45;39.90;;;13.98;;
62994;SDS011;49086;52.300;4.850;2022-12-18T03:44:27;29.80;;;14.65;;
62994;SDS011;49086;52.300;4.850;2022-12-18T03:52:35;24.02;;;11.95;;
62994;SDS011;49086;52.300;4.850;2022-12-18T03:55:11;33.03;;;14.05;;
62994;SDS011;49086;52.300;4.850;2022-12-18T03:57:38;36.70;;;14.90;;
62994;SDS011;49086;52.300;4.850;2022-12-18T04:00:09;31.45;;;13.65;;
62994;SDS011;49086;52.300;4.850;2022-12-18T04:05:16;37.40;;;15.50;;
62994;SDS011;49086;52.300;4.850;2022-12-18T04:07:42;35.28;;;13.65;;
62994;SDS011;49086;52.300;4.850;2022-12-18T04:10:08;30.08;;;12.95;;
62994;SDS011;49086;52.300;4.850;2022-12-18T04:12:36;35.92;;;15.05;;
62994;SDS011;49086;52.300;4.850;2022-12-18T04:15:02;34.55;;;16.25;;
62994;SDS011;49086;52.300;4.850;2022-12-18T04:17:27;36.47;;;15.52;;
62994;SDS011;49086;52.300;4.850;2022-12-18T04:19:52;33.72;;;14.02;;
62994;SDS011;49086;52.300;4.850;2022-12-18T04:22:19;41.90;;;15.93;;
62994;SDS011;49086;52.300;4.850;2022-12-18T04:24:44;37.77;;;17.63;;
62994;SDS011;49086;52.300;4.850;2022-12-18T04:27:11;39.35;;;15.75;;
62994;SDS011;49086;52.300;4.850;2022-12-18T04:29:36;36.85;;;15.80;;
62994;SDS011;49086;52.300;4.850;2022-12-18T04:32:01;37.03;;;16.57;;
62994;SDS011;49086;52.300;4.850;2022-12-18T04:34:29;37.83;;;14.35;;
62994;SDS011;49086;52.300;4.850;2022-12-18T04:36:54;42.08;;;16.55;;
62994;SDS011;49086;52.300;4.850;2022-12-18T04:39:20;39.03;;;16.77;;
62994;SDS011;49086;52.300;4.850;2022-12-18T04:41:45;35.35;;;15.30;;
62994;SDS011;49086;52.300;4.850;2022-12-18T04:44:15;31.27;;;15.57;;
62994;SDS011;49086;52.300;4.850;2022-12-18T04:46:40;38.58;;;15.88;;
62994;SDS011;49086;52.300;4.850;2022-12-18T04:49:05;33.60;;;15.33;;
62994;SDS011;49086;52.300;4.850;2022-12-18T04:51:30;29.20;;;14.30;;
62994;SDS011;49086;52.300;4.850;2022-12-18T04:53:57;35.88;;;16.40;;
62994;SDS011;49086;52.300;4.850;2022-12-18T04:56:22;32.55;;;13.82;;
62994;SDS011;49086;52.300;4.850;2022-12-18T04:58:48;38.00;;;15.48;;
62994;SDS011;49086;52.300;4.850;2022-12-18T05:01:15;34.42;;;15.32;;
62994;SDS011;49086;52.300;4.850;2022-12-18T05:03:40;40.45;;;16.70;;
62994;SDS011;49086;52.300;4.850;2022-12-18T05:06:06;36.38;;;15.27;;
62994;SDS011;49086;52.300;4.850;2022-12-18T05:08:32;38.10;;;13.73;;
62994;SDS011;49086;52.300;4.850;2022-12-18T05:11:01;32.88;;;14.75;;
62994;SDS011;49086;52.300;4.850;2022-12-18T05:13:27;40.65;;;17.85;;
62994;SDS011;49086;52.300;4.850;2022-12-18T05:15:54;34.72;;;14.57;;
62994;SDS011;49086;52.300;4.850;2022-12-18T05:18:20;34.00;;;15.73;;
62994;SDS011;49086;52.300;4.850;2022-12-18T05:20:45;30.10;;;13.75;;
62994;SDS011;49086;52.300;4.850;2022-12-18T05:23:12;33.10;;;15.05;;
62994;SDS011;49086;52.300;4.850;2022-12-18T05:25:37;35.97;;;13.43;;
62994;SDS011;49086;52.300;4.850;2022-12-18T05:28:04;36.78;;;14.95;;
62994;SDS011;49086;52.300;4.850;2022-12-18T05:30:29;31.48;;;14.32;;
62994;SDS011;49086;52.300;4.850;2022-12-18T05:32:54;30.50;;;14.03;;
62994;SDS011;49086;52.300;4.850;2022-12-18T05:35:19;33.60;;;15.85;;
62994;SDS011;49086;52.300;4.850;2022-12-18T05:37:45;34.05;;;15.25;;
62994;SDS011;49086;52.300;4.850;2022-12-18T05:40:11;33.38;;;13.80;;
62994;SDS011;49086;52.300;4.850;2022-12-18T05:42:36;33.10;;;14.88;;
62994;SDS011;49086;52.300;4.850;2022-12-18T05:45:04;27.88;;;13.82;;
62994;SDS011;49086;52.300;4.850;2022-12-18T05:47:37;30.98;;;13.00;;
62994;SDS011;49086;52.300;4.850;2022-12-18T05:50:07;27.67;;;13.75;;
62994;SDS011;49086;52.300;4.850;2022-12-18T05:52:36;33.15;;;13.82;;
62994;SDS011;49086;52.300;4.850;2022-12-18T05:55:04;28.33;;;12.52;;
62994;SDS011;49086;52.300;4.850;2022-12-18T05:57:30;30.42;;;14.40;;
62994;SDS011;49086;52.300;4.850;2022-12-18T06:00:16;29.98;;;13.18;;
62994;SDS011;49086;52.300;4.850;2022-12-18T06:02:42;30.45;;;14.13;;
62994;SDS011;49086;52.300;4.850;2022-12-18T06:05:24;30.40;;;12.85;;
62994;SDS011;49086;52.300;4.850;2022-12-18T06:07:52;33.42;;;13.60;;
62994;SDS011;49086;52.300;4.850;2022-12-18T06:10:34;23.67;;;14.20;;
62994;SDS011;49086;52.300;4.850;2022-12-18T06:13:05;25.58;;;11.93;;
62994;SDS011;49086;52.300;4.850;2022-12-18T06:18:35;28.65;;;13.95;;
62994;SDS011;49086;52.300;4.850;2022-12-18T06:21:00;27.90;;;14.77;;
62994;SDS011;49086;52.300;4.850;2022-12-18T06:23:34;35.53;;;13.77;;
62994;SDS011;49086;52.300;4.850;2022-12-18T06:32:36;27.45;;;13.30;;
62994;SDS011;49086;52.300;4.850;2022-12-18T06:35:37;31.67;;;14.73;;
62994;SDS011;49086;52.300;4.850;2022-12-18T06:41:13;20.58;;;11.98;;
62994;SDS011;49086;52.300;4.850;2022-12-18T06:49:44;26.35;;;12.70;;
62994;SDS011;49086;52.300;4.850;2022-12-18T06:52:12;22.45;;;11.48;;
62994;SDS011;49086;52.300;4.850;2022-12-18T06:54:38;26.17;;;12.40;;
62994;SDS011;49086;52.300;4.850;2022-12-18T06:57:06;26.13;;;12.35;;
62994;SDS011;49086;52.300;4.850;2022-12-18T06:59:33;22.10;;;12.68;;
62994;SDS011;49086;52.300;4.850;2022-12-18T07:01:58;23.38;;;12.23;;
62994;SDS011;49086;52.300;4.850;2022-12-18T07:04:32;25.65;;;12.07;;
62994;SDS011;49086;52.300;4.850;2022-12-18T07:06:58;26.67;;;11.60;;
62994;SDS011;49086;52.300;4.850;2022-12-18T07:09:24;21.42;;;10.40;;
62994;SDS011;49086;52.300;4.850;2022-12-18T07:11:49;22.02;;;11.25;;
62994;SDS011;49086;52.300;4.850;2022-12-18T07:14:14;21.25;;;11.57;;
62994;SDS011;49086;52.300;4.850;2022-12-18T07:16:39;21.17;;;9.60;;
62994;SDS011;49086;52.300;4.850;2022-12-18T07:19:07;18.10;;;10.18;;
62994;SDS011;49086;52.300;4.850;2022-12-18T07:21:32;24.25;;;11.27;;
62994;SDS011;49086;52.300;4.850;2022-12-18T07:23:57;16.48;;;8.85;;
62994;SDS011;49086;52.300;4.850;2022-12-18T07:26:22;20.03;;;9.37;;
62994;SDS011;49086;52.300;4.850;2022-12-18T07:28:48;22.55;;;10.30;;
62994;SDS011;49086;52.300;4.850;2022-12-18T07:31:14;19.55;;;9.18;;
62994;SDS011;49086;52.300;4.850;2022-12-18T07:33:40;20.40;;;9.25;;
62994;SDS011;49086;52.300;4.850;2022-12-18T07:36:06;20.50;;;10.00;;
62994;SDS011;49086;52.300;4.850;2022-12-18T07:38:32;26.35;;;11.02;;
62994;SDS011;49086;52.300;4.850;2022-12-18T07:41:01;16.17;;;9.10;;
62994;SDS011;49086;52.300;4.850;2022-12-18T07:43:26;21.50;;;11.27;;
62994;SDS011;49086;52.300;4.850;2022-12-18T07:45:51;18.50;;;9.40;;
62994;SDS011;49086;52.300;4.850;2022-12-18T07:48:18;15.03;;;9.80;;
62994;SDS011;49086;52.300;4.850;2022-12-18T07:50:43;22.08;;;10.75;;
62994;SDS011;49086;52.300;4.850;2022-12-18T07:53:08;18.00;;;9.77;;
62994;SDS011;49086;52.300;4.850;2022-12-18T07:55:34;13.90;;;8.82;;
62994;SDS011;49086;52.300;4.850;2022-12-18T07:58:02;19.02;;;8.93;;
62994;SDS011;49086;52.300;4.850;2022-12-18T08:00:28;17.85;;;9.13;;
62994;SDS011;49086;52.300;4.850;2022-12-18T08:02:57;19.75;;;9.73;;
62994;SDS011;49086;52.300;4.850;2022-12-18T08:05:33;15.85;;;8.32;;
62994;SDS011;49086;52.300;4.850;2022-12-18T08:07:58;16.38;;;10.38;;
62994;SDS011;49086;52.300;4.850;2022-12-18T08:10:24;17.45;;;9.25;;
62994;SDS011;49086;52.300;4.850;2022-12-18T08:12:50;19.70;;;8.23;;
62994;SDS011;49086;52.300;4.850;2022-12-18T08:15:15;22.40;;;9.38;;
62994;SDS011;49086;52.300;4.850;2022-12-18T08:17:41;16.58;;;8.32;;
62994;SDS011;49086;52.300;4.850;2022-12-18T08:20:10;17.17;;;9.60;;
62994;SDS011;49086;52.300;4.850;2022-12-18T08:22:37;16.70;;;8.02;;
62994;SDS011;49086;52.300;4.850;2022-12-18T08:25:06;16.45;;;9.75;;
62994;SDS011;49086;52.300;4.850;2022-12-18T08:28:01;14.43;;;8.43;;
62994;SDS011;49086;52.300;4.850;2022-12-18T08:30:27;15.35;;;8.23;;
62994;SDS011;49086;52.300;4.850;2022-12-18T08:32:55;12.68;;;8.10;;
62994;SDS011;49086;52.300;4.850;2022-12-18T08:35:26;15.50;;;8.00;;
62994;SDS011;49086;52.300;4.850;2022-12-18T08:38:46;13.52;;;8.00;;
62994;SDS011;49086;52.300;4.850;2022-12-18T08:41:43;16.45;;;7.82;;
62994;SDS011;49086;52.300;4.850;2022-12-18T09:00:36;16.67;;;7.90;;
62994;SDS011;49086;52.300;4.850;2022-12-18T09:03:26;15.50;;;7.93;;
62994;SDS011;49086;52.300;4.850;2022-12-18T09:05:58;15.10;;;7.90;;
62994;SDS011;49086;52.300;4.850;2022-12-18T09:08:45;22.25;;;10.20;;
62994;SDS011;49086;52.300;4.850;2022-12-18T09:11:14;17.45;;;8.45;;
62994;SDS011;49086;52.300;4.850;2022-12-18T09:14:03;16.05;;;8.98;;
62994;SDS011;49086;52.300;4.850;2022-12-18T09:16:29;14.93;;;8.40;;
62994;SDS011;49086;52.300;4.850;2022-12-18T09:18:57;14.57;;;9.18;;
62994;SDS011;49086;52.300;4.850;2022-12-18T09:21:44;14.30;;;8.07;;
62994;SDS011;49086;52.300;4.850;2022-12-18T09:27:40;19.13;;;8.60;;
62994;SDS011;49086;52.300;4.850;2022-12-18T09:30:08;15.52;;;8.30;;
62994;SDS011;49086;52.300;4.850;2022-12-18T09:32:39;13.65;;;7.78;;
62994;SDS011;49086;52.300;4.850;2022-12-18T09:35:32;17.40;;;9.35;;
62994;SDS011;49086;52.300;4.850;2022-12-18T09:38:24;18.05;;;9.07;;
62994;SDS011;49086;52.300;4.850;2022-12-18T09:40:53;16.77;;;9.75;;
62994;SDS011;49086;52.300;4.850;2022-12-18T09:43:28;14.63;;;8.82;;
62994;SDS011;49086;52.300;4.850;2022-12-18T09:46:26;14.27;;;9.15;;
62994;SDS011;49086;52.300;4.850;2022-12-18T09:48:57;14.73;;;8.30;;
62994;SDS011;49086;52.300;4.850;2022-12-18T09:51:26;12.95;;;7.60;;
62994;SDS011;49086;52.300;4.850;2022-12-18T09:54:24;12.85;;;7.72;;
62994;SDS011;49086;52.300;4.850;2022-12-18T09:56:54;15.75;;;8.98;;
62994;SDS011;49086;52.300;4.850;2022-12-18T10:02:29;11.13;;;7.68;;
62994;SDS011;49086;52.300;4.850;2022-12-18T10:13:44;15.98;;;8.85;;
62994;SDS011;49086;52.300;4.850;2022-12-18T10:19:14;17.95;;;8.65;;
62994;SDS011;49086;52.300;4.850;2022-12-18T10:30:20;18.08;;;8.40;;
62994;SDS011;49086;52.300;4.850;2022-12-18T10:32:47;16.70;;;8.63;;
62994;SDS011;49086;52.300;4.850;2022-12-18T10:35:21;17.30;;;8.88;;
62994;SDS011;49086;52.300;4.850;2022-12-18T10:38:02;12.13;;;7.93;;
62994;SDS011;49086;52.300;4.850;2022-12-18T10:40:47;14.90;;;9.27;;
62994;SDS011;49086;52.300;4.850;2022-12-18T10:43:40;13.27;;;7.70;;
62994;SDS011;49086;52.300;4.850;2022-12-18T10:51:33;17.65;;;9.63;;
62994;SDS011;49086;52.300;4.850;2022-12-18T10:54:14;17.17;;;9.52;;
62994;SDS011;49086;52.300;4.850;2022-12-18T11:06:16;14.10;;;8.50;;
62994;SDS011;49086;52.300;4.850;2022-12-18T11:20:51;15.45;;;8.65;;
62994;SDS011;49086;52.300;4.850;2022-12-18T11:26:44;15.32;;;8.82;;
62994;SDS011;49086;52.300;4.850;2022-12-18T11:33:16;13.27;;;8.25;;
62994;SDS011;49086;52.300;4.850;2022-12-18T11:35:50;14.73;;;7.32;;
62994;SDS011;49086;52.300;4.850;2022-12-18T11:44:25;15.15;;;8.90;;
62994;SDS011;49086;52.300;4.850;2022-12-18T11:46:59;16.13;;;8.32;;
62994;SDS011;49086;52.300;4.850;2022-12-18T11:49:49;13.68;;;7.78;;
62994;SDS011;49086;52.300;4.850;2022-12-18T11:52:23;15.20;;;8.37;;
62994;SDS011;49086;52.300;4.850;2022-12-18T12:39:38;15.02;;;8.10;;
62994;SDS011;49086;52.300;4.850;2022-12-18T12:45:17;12.57;;;7.20;;
62994;SDS011;49086;52.300;4.850;2022-12-18T12:47:46;16.40;;;8.43;;
62994;SDS011;49086;52.300;4.850;2022-12-18T12:50:19;15.30;;;8.25;;
62994;SDS011;49086;52.300;4.850;2022-12-18T13:01:59;15.48;;;8.63;;
62994;SDS011;49086;52.300;4.850;2022-12-18T13:04:50;14.02;;;8.15;;
62994;SDS011;49086;52.300;4.850;2022-12-18T13:07:26;16.70;;;9.23;;
62994;SDS011;49086;52.300;4.850;2022-12-18T13:18:35;16.17;;;7.88;;
62994;SDS011;49086;52.300;4.850;2022-12-18T13:21:30;15.93;;;8.57;;
62994;SDS011;49086;52.300;4.850;2022-12-18T13:24:23;14.38;;;7.85;;
62994;SDS011;49086;52.300;4.850;2022-12-18T13:27:58;15.50;;;7.80;;
62994;SDS011;49086;52.300;4.850;2022-12-18T13:30:47;18.90;;;8.65;;
62994;SDS011;49086;52.300;4.850;2022-12-18T13:39:09;18.35;;;8.85;;
62994;SDS011;49086;52.300;4.850;2022-12-18T13:41:36;19.15;;;8.13;;
62994;SDS011;49086;52.300;4.850;2022-12-18T13:49:53;14.68;;;7.88;;
62994;SDS011;49086;52.300;4.850;2022-12-18T13:52:21;16.15;;;8.88;;
62994;SDS011;49086;52.300;4.850;2022-12-18T13:55:04;18.55;;;8.57;;
62994;SDS011;49086;52.300;4.850;2022-12-18T13:57:40;17.85;;;9.73;;
62994;SDS011;49086;52.300;4.850;2022-12-18T14:00:30;17.73;;;8.15;;
62994;SDS011;49086;52.300;4.850;2022-12-18T14:03:01;15.20;;;8.43;;
62994;SDS011;49086;52.300;4.850;2022-12-18T14:05:27;15.23;;;8.13;;
62994;SDS011;49086;52.300;4.850;2022-12-18T14:08:30;16.25;;;8.45;;
62994;SDS011;49086;52.300;4.850;2022-12-18T14:11:19;13.73;;;7.03;;
62994;SDS011;49086;52.300;4.850;2022-12-18T14:13:48;15.65;;;8.00;;
62994;SDS011;49086;52.300;4.850;2022-12-18T14:16:15;14.68;;;8.70;;
62994;SDS011;49086;52.300;4.850;2022-12-18T14:18:57;16.52;;;8.38;;
62994;SDS011;49086;52.300;4.850;2022-12-18T14:21:47;15.38;;;8.63;;
62994;SDS011;49086;52.300;4.850;2022-12-18T14:24:23;17.00;;;8.77;;
62994;SDS011;49086;52.300;4.850;2022-12-18T14:26:49;16.25;;;8.27;;
62994;SDS011;49086;52.300;4.850;2022-12-18T14:29:39;15.32;;;7.82;;
62994;SDS011;49086;52.300;4.850;2022-12-18T14:32:29;14.30;;;7.57;;
62994;SDS011;49086;52.300;4.850;2022-12-18T14:35:12;15.43;;;9.07;;
62994;SDS011;49086;52.300;4.850;2022-12-18T14:41:20;12.93;;;7.13;;
62994;SDS011;49086;52.300;4.850;2022-12-18T14:43:56;15.38;;;7.45;;
62994;SDS011;49086;52.300;4.850;2022-12-18T14:46:45;17.67;;;8.90;;
62994;SDS011;49086;52.300;4.850;2022-12-18T14:49:31;16.45;;;8.88;;
62994;SDS011;49086;52.300;4.850;2022-12-18T14:52:01;16.38;;;8.52;;
62994;SDS011;49086;52.300;4.850;2022-12-18T14:54:52;17.85;;;8.57;;
62994;SDS011;49086;52.300;4.850;2022-12-18T14:57:34;15.80;;;9.13;;
62994;SDS011;49086;52.300;4.850;2022-12-18T15:00:06;13.70;;;7.82;;
62994;SDS011;49086;52.300;4.850;2022-12-18T15:02:59;17.88;;;9.73;;
62994;SDS011;49086;52.300;4.850;2022-12-18T15:05:49;15.80;;;7.93;;
62994;SDS011;49086;52.300;4.850;2022-12-18T15:08:35;15.27;;;8.90;;
62994;SDS011;49086;52.300;4.850;2022-12-18T15:11:23;18.40;;;9.50;;
62994;SDS011;49086;52.300;4.850;2022-12-18T15:17:30;20.92;;;8.40;;
62994;SDS011;49086;52.300;4.850;2022-12-18T15:20:22;17.25;;;9.50;;
62994;SDS011;49086;52.300;4.850;2022-12-18T15:22:54;14.85;;;8.38;;
62994;SDS011;49086;52.300;4.850;2022-12-18T15:25:40;14.48;;;8.95;;
62994;SDS011;49086;52.300;4.850;2022-12-18T15:31:00;15.02;;;7.43;;
62994;SDS011;49086;52.300;4.850;2022-12-18T15:33:36;16.92;;;8.88;;
62994;SDS011;49086;52.300;4.850;2022-12-18T15:36:21;19.63;;;9.20;;
62994;SDS011;49086;52.300;4.850;2022-12-18T15:38:50;18.33;;;8.63;;
62994;SDS011;49086;52.300;4.850;2022-12-18T15:41:31;21.35;;;9.77;;
62994;SDS011;49086;52.300;4.850;2022-12-18T15:44:22;18.67;;;8.50;;
62994;SDS011;49086;52.300;4.850;2022-12-18T15:46:51;22.95;;;9.95;;
62994;SDS011;49086;52.300;4.850;2022-12-18T15:49:24;17.42;;;9.35;;
62994;SDS011;49086;52.300;4.850;2022-12-18T15:52:07;19.00;;;9.68;;
62994;SDS011;49086;52.300;4.850;2022-12-18T15:54:40;15.50;;;8.45;;
62994;SDS011;49086;52.300;4.850;2022-12-18T15:57:27;16.80;;;9.27;;
62994;SDS011;49086;52.300;4.850;2022-12-18T16:00:02;16.58;;;8.38;;
62994;SDS011;49086;52.300;4.850;2022-12-18T16:03:11;17.38;;;8.70;;
62994;SDS011;49086;52.300;4.850;2022-12-18T16:05:54;13.93;;;7.93;;
62994;SDS011;49086;52.300;4.850;2022-12-18T16:08:19;17.02;;;8.02;;
62994;SDS011;49086;52.300;4.850;2022-12-18T16:10:48;18.42;;;9.45;;
62994;SDS011;49086;52.300;4.850;2022-12-18T16:13:14;18.48;;;10.15;;
62994;SDS011;49086;52.300;4.850;2022-12-18T16:15:56;16.15;;;8.60;;
62994;SDS011;49086;52.300;4.850;2022-12-18T16:18:23;16.20;;;8.43;;
62994;SDS011;49086;52.300;4.850;2022-12-18T16:21:18;17.42;;;9.57;;
62994;SDS011;49086;52.300;4.850;2022-12-18T16:23:51;22.08;;;10.15;;
62994;SDS011;49086;52.300;4.850;2022-12-18T16:26:17;17.35;;;9.95;;
62994;SDS011;49086;52.300;4.850;2022-12-18T16:28:46;18.27;;;9.55;;
62994;SDS011;49086;52.300;4.850;2022-12-18T16:31:14;17.55;;;9.52;;
62994;SDS011;49086;52.300;4.850;2022-12-18T16:33:39;21.08;;;10.25;;
62994;SDS011;49086;52.300;4.850;2022-12-18T16:36:06;19.13;;;10.25;;
62994;SDS011;49086;52.300;4.850;2022-12-18T16:38:36;17.92;;;10.38;;
62994;SDS011;49086;52.300;4.850;2022-12-18T16:41:01;16.25;;;9.32;;
62994;SDS011;49086;52.300;4.850;2022-12-18T16:43:58;19.70;;;9.70;;
62994;SDS011;49086;52.300;4.850;2022-12-18T16:46:51;24.95;;;9.98;;
62994;SDS011;49086;52.300;4.850;2022-12-18T16:49:28;17.08;;;9.25;;
62994;SDS011;49086;52.300;4.850;2022-12-18T16:52:36;18.17;;;9.70;;
62994;SDS011;49086;52.300;4.850;2022-12-18T16:55:18;20.63;;;9.75;;
62994;SDS011;49086;52.300;4.850;2022-12-18T16:58:09;20.40;;;11.10;;
62994;SDS011;49086;52.300;4.850;2022-12-18T17:00:37;17.95;;;10.48;;
62994;SDS011;49086;52.300;4.850;2022-12-18T17:03:10;16.30;;;8.93;;
62994;SDS011;49086;52.300;4.850;2022-12-18T17:05:42;16.15;;;9.23;;
62994;SDS011;49086;52.300;4.850;2022-12-18T17:08:12;19.15;;;9.70;;
62994;SDS011;49086;52.300;4.850;2022-12-18T17:11:05;22.58;;;10.77;;
62994;SDS011;49086;52.300;4.850;2022-12-18T17:13:55;14.68;;;8.35;;
62994;SDS011;49086;52.300;4.850;2022-12-18T17:19:39;26.45;;;12.75;;
62994;SDS011;49086;52.300;4.850;2022-12-18T17:22:27;20.17;;;10.25;;
62994;SDS011;49086;52.300;4.850;2022-12-18T17:24:58;17.73;;;9.63;;
62994;SDS011;49086;52.300;4.850;2022-12-18T17:27:30;17.15;;;10.27;;
62994;SDS011;49086;52.300;4.850;2022-12-18T17:29:55;21.40;;;10.90;;
62994;SDS011;49086;52.300;4.850;2022-12-18T17:32:29;20.73;;;12.25;;
62994;SDS011;49086;52.300;4.850;2022-12-18T17:34:57;19.48;;;11.30;;
62994;SDS011;49086;52.300;4.850;2022-12-18T17:37:24;21.27;;;9.90;;
62994;SDS011;49086;52.300;4.850;2022-12-18T17:39:55;22.05;;;10.18;;
62994;SDS011;49086;52.300;4.850;2022-12-18T17:42:40;16.73;;;9.18;;
62994;SDS011;49086;52.300;4.850;2022-12-18T17:45:13;19.60;;;9.90;;
62994;SDS011;49086;52.300;4.850;2022-12-18T17:47:43;20.07;;;10.50;;
62994;SDS011;49086;52.300;4.850;2022-12-18T17:50:15;21.60;;;10.68;;
62994;SDS011;49086;52.300;4.850;2022-12-18T17:53:05;19.58;;;9.85;;
62994;SDS011;49086;52.300;4.850;2022-12-18T17:55:54;19.13;;;9.57;;
62994;SDS011;49086;52.300;4.850;2022-12-18T17:58:37;19.50;;;10.13;;
62994;SDS011;49086;52.300;4.850;2022-12-18T18:01:11;18.48;;;9.85;;
62994;SDS011;49086;52.300;4.850;2022-12-18T18:04:02;15.15;;;8.65;;
62994;SDS011;49086;52.300;4.850;2022-12-18T18:09:59;18.10;;;10.05;;
62994;SDS011;49086;52.300;4.850;2022-12-18T18:12:31;19.80;;;10.30;;
62994;SDS011;49086;52.300;4.850;2022-12-18T18:21:20;20.17;;;10.50;;
62994;SDS011;49086;52.300;4.850;2022-12-18T18:23:49;21.77;;;10.95;;
62994;SDS011;49086;52.300;4.850;2022-12-18T18:32:26;20.40;;;9.45;;
62994;SDS011;49086;52.300;4.850;2022-12-18T18:35:03;21.83;;;11.00;;
62994;SDS011;49086;52.300;4.850;2022-12-18T18:37:50;21.98;;;11.15;;
62994;SDS011;49086;52.300;4.850;2022-12-18T18:43:24;20.75;;;10.85;;
62994;SDS011;49086;52.300;4.850;2022-12-18T18:49:08;19.98;;;9.75;;
62994;SDS011;49086;52.300;4.850;2022-12-18T18:51:39;18.60;;;10.02;;
62994;SDS011;49086;52.300;4.850;2022-12-18T18:54:09;22.58;;;10.48;;
62994;SDS011;49086;52.300;4.850;2022-12-18T18:56:40;22.27;;;11.30;;
62994;SDS011;49086;52.300;4.850;2022-12-18T18:59:44;20.23;;;10.65;;
62994;SDS011;49086;52.300;4.850;2022-12-18T19:02:30;23.30;;;11.38;;
62994;SDS011;49086;52.300;4.850;2022-12-18T19:05:01;21.65;;;10.63;;
62994;SDS011;49086;52.300;4.850;2022-12-18T19:07:29;23.35;;;12.20;;
62994;SDS011;49086;52.300;4.850;2022-12-18T19:10:39;21.52;;;9.55;;
62994;SDS011;49086;52.300;4.850;2022-12-18T19:23:11;21.15;;;10.77;;
62994;SDS011;49086;52.300;4.850;2022-12-18T19:25:37;19.15;;;10.35;;
62994;SDS011;49086;52.300;4.850;2022-12-18T19:28:03;22.35;;;10.52;;
62994;SDS011;49086;52.300;4.850;2022-12-18T19:30:28;17.13;;;10.00;;
62994;SDS011;49086;52.300;4.850;2022-12-18T19:32:53;22.93;;;11.37;;
62994;SDS011;49086;52.300;4.850;2022-12-18T19:35:20;26.88;;;12.82;;
62994;SDS011;49086;52.300;4.850;2022-12-18T19:37:54;23.77;;;11.55;;